Hovedside
METAR-TAF:

METAR-TAF

Lufthavner :

Mopti, Mali

breddegrad: 14-30-46N, lengdegrad: 004-04-46W, høyde over havet: 276 m

Gjeldene værobservasjon

Denne rapporten ble laget for 24 minutter siden, klokken 15:00 UTC
Vind 10 kt fra Sørvest
Temperatur 33°C
Luftfuktighet 67%
Trykk 1011 hPa
Sikt 10 km eller mer
Spredte skyer i en høyde av 3000 ft

METAR: GAMB 181500Z 22010KT 9999 SCT030 33/26 Q1011

Tid: 15:24 (15:24 UTC)


TAF: fraværende

Værobservasjoner og værvarsel for over 4000 flyplasser (METAR- og TAF-rapporter).

Tilgjengelige stasjoner er representert av de røde og gule prikkene på kartet.

Hold musepekeren over prikken for å se navnet på stasjonen.

Klikk så for å se værobservasjoner og -varsler.

For å forandre kartet kan du klikke på den grønne knappen med svart kryss for å zoome inn, på den grønne knappen med strek for å zoome ut, eller på de grønne pilene for å se tilstøtende kart.


METAR-TAF: